Christine M Mcallister — WDB4780 — position and weather

sailwx.info

Track history (hours):
 
Tides and Currents Weather Stations Pressure Air Temp Water Temp Dewpoint Dewpoint Depression Visibility Wind Speed Wind Dir Waves Ship Positions

Christine M Mcallister

Owner: MC ALLISTER TOWING & TRANSPORTATION INC, NY, NY. More information available from US FCC via Universal Licensing System and Coast Guard Vessel Documentation Center.

Last reported at 2017-Dec-11 07:00 UTC. Time now 2017-Dec-12 08:35 UTC.
Position N 27°01' W 079°58'.

; draft 6.2 m.

Type: Pollution control. MMSI: 362707956.

Date/timePositionNaut miles runAvg speedWind from/ knotsBaromVisibWave heightAir tempDewpointWater temp
2017-Dec-11 07:00N 27°01' W 079°58'5 9.3
2017-Dec-11 06:30N 26°57' W 079°58'5 9.0
2017-Dec-11 06:00N 26°52' W 079°58'4 8.9
2017-Dec-11 05:30N 26°48' W 079°58'4 8.6
2017-Dec-11 05:00N 26°44' W 079°58'4 8.6
2017-Dec-11 04:30N 26°39' W 079°58'4 8.5
2017-Dec-11 04:00N 26°35' W 079°59'22 9.2
2017-Dec-11 01:37N 26°13' W 080°02'1 8.8
2017-Dec-11 01:30N 26°12' W 080°02'4 8.6
2017-Dec-11 01:00N 26°08' W 080°02'3 6.1
2017-Dec-11 00:30N 26°06' W 080°05'2 4.7
2017-Dec-11 00:00N 26°05' W 080°07'0 0.8
2017-Dec-10 23:29N 26°04' W 080°07'1 0.5
2017-Dec-10 22:01N 26°05' W 080°07'0 0.0
2017-Dec-10 21:49N 26°05' W 080°07'0 0.0
2017-Dec-10 21:19N 26°05' W 080°07'0 0.0
2017-Dec-10 20:59N 26°05' W 080°07'0 0.0
2017-Dec-10 20:30N 26°05' W 080°07'0 0.0
2017-Dec-10 20:00N 26°05' W 080°07'0 0.0
2017-Dec-10 19:30N 26°05' W 080°07'0 0.0
2017-Dec-10 19:00N 26°05' W 080°07'0 0.0
2017-Dec-10 18:30N 26°05' W 080°07'0 0.0
2017-Dec-10 18:00N 26°05' W 080°07'0 0.0
2017-Dec-10 17:30N 26°05' W 080°07'0 0.0
2017-Dec-10 17:00N 26°05' W 080°07'1 1.5
2017-Dec-10 16:30N 26°04' W 080°07'0 0.0
2017-Dec-10 16:00N 26°04' W 080°07'0 0.0
2017-Dec-10 15:30N 26°04' W 080°07'0 0.0
2017-Dec-10 15:00N 26°04' W 080°07'0 0.0
2017-Dec-10 14:30N 26°04' W 080°07'0 0.1
2017-Dec-10 14:00N 26°04' W 080°07'0 0.5
2017-Dec-10 13:30N 26°04' W 080°07'1 2.2
2017-Dec-10 13:00N 26°05' W 080°07'1 1.8
2017-Dec-10 12:30N 26°06' W 080°06'2 4.2
2017-Dec-10 12:00N 26°04' W 080°04'2 4.6
2017-Dec-10 11:30N 26°02' W 080°04'3 5.0
2017-Dec-10 11:00N 25°59' W 080°04'2 4.8
2017-Dec-10 10:30N 25°57' W 080°04'2 4.8
2017-Dec-10 10:00N 25°55' W 080°04'2 4.9
2017-Dec-10 09:30N 25°52' W 080°04'2 5.0
2017-Dec-10 09:00N 25°50' W 080°04'3 5.3
2017-Dec-10 08:30N 25°47' W 080°03'3 5.1
2017-Dec-10 08:00N 25°44' W 080°03'2 4.6
2017-Dec-10 07:30N 25°42' W 080°03'3 5.0
2017-Dec-10 07:00N 25°40' W 080°03'2 5.0
2017-Dec-10 06:30N 25°37' W 080°03'  
Track history (hours):
 
Tides and Currents Weather Stations Pressure Air Temp Water Temp Dewpoint Dewpoint Depression Visibility Wind Speed Wind Dir Waves Ship Positions

Christine M Mcallister

Owner: MC ALLISTER TOWING & TRANSPORTATION INC, NY, NY. More information available from US FCC via Universal Licensing System and Coast Guard Vessel Documentation Center.

Last reported at 2017-Dec-11 07:00 UTC. Time now 2017-Dec-12 08:35 UTC.
Position N 27°01' W 079°58'.

; draft 6.2 m.

Type: Pollution control. MMSI: 362707956.

Date/timePositionNaut miles runAvg speedWind from/ knotsBaromVisibWave heightAir tempDewpointWater temp
2017-Dec-11 07:00N 27°01' W 079°58'5 9.3
2017-Dec-11 06:30N 26°57' W 079°58'5 9.0
2017-Dec-11 06:00N 26°52' W 079°58'4 8.9
2017-Dec-11 05:30N 26°48' W 079°58'4 8.6
2017-Dec-11 05:00N 26°44' W 079°58'4 8.6
2017-Dec-11 04:30N 26°39' W 079°58'4 8.5
2017-Dec-11 04:00N 26°35' W 079°59'22 9.2
2017-Dec-11 01:37N 26°13' W 080°02'1 8.8
2017-Dec-11 01:30N 26°12' W 080°02'4 8.6
2017-Dec-11 01:00N 26°08' W 080°02'3 6.1
2017-Dec-11 00:30N 26°06' W 080°05'2 4.7
2017-Dec-11 00:00N 26°05' W 080°07'0 0.8
2017-Dec-10 23:29N 26°04' W 080°07'1 0.5
2017-Dec-10 22:01N 26°05' W 080°07'0 0.0
2017-Dec-10 21:49N 26°05' W 080°07'0 0.0
2017-Dec-10 21:19N 26°05' W 080°07'0 0.0
2017-Dec-10 20:59N 26°05' W 080°07'0 0.0
2017-Dec-10 20:30N 26°05' W 080°07'0 0.0
2017-Dec-10 20:00N 26°05' W 080°07'0 0.0
2017-Dec-10 19:30N 26°05' W 080°07'0 0.0
2017-Dec-10 19:00N 26°05' W 080°07'0 0.0
2017-Dec-10 18:30N 26°05' W 080°07'0 0.0
2017-Dec-10 18:00N 26°05' W 080°07'0 0.0
2017-Dec-10 17:30N 26°05' W 080°07'0 0.0
2017-Dec-10 17:00N 26°05' W 080°07'1 1.5
2017-Dec-10 16:30N 26°04' W 080°07'0 0.0
2017-Dec-10 16:00N 26°04' W 080°07'0 0.0
2017-Dec-10 15:30N 26°04' W 080°07'0 0.0
2017-Dec-10 15:00N 26°04' W 080°07'0 0.0
2017-Dec-10 14:30N 26°04' W 080°07'0 0.1
2017-Dec-10 14:00N 26°04' W 080°07'0 0.5
2017-Dec-10 13:30N 26°04' W 080°07'1 2.2
2017-Dec-10 13:00N 26°05' W 080°07'1 1.8
2017-Dec-10 12:30N 26°06' W 080°06'2 4.2
2017-Dec-10 12:00N 26°04' W 080°04'2 4.6
2017-Dec-10 11:30N 26°02' W 080°04'3 5.0
2017-Dec-10 11:00N 25°59' W 080°04'2 4.8
2017-Dec-10 10:30N 25°57' W 080°04'2 4.8
2017-Dec-10 10:00N 25°55' W 080°04'2 4.9
2017-Dec-10 09:30N 25°52' W 080°04'2 5.0
2017-Dec-10 09:00N 25°50' W 080°04'3 5.3
2017-Dec-10 08:30N 25°47' W 080°03'3 5.1
2017-Dec-10 08:00N 25°44' W 080°03'2 4.6
2017-Dec-10 07:30N 25°42' W 080°03'3 5.0
2017-Dec-10 07:00N 25°40' W 080°03'2 5.0
2017-Dec-10 06:30N 25°37' W 080°03'  

Dump ship's entire track history